createdAt,value
2022-12-24T00:00:40.081Z,7.80
2022-12-24T00:03:06.912Z,7.80
2022-12-24T00:05:33.652Z,7.90
2022-12-24T00:08:00.373Z,7.90
2022-12-24T00:10:27.127Z,7.90
2022-12-24T00:12:53.816Z,7.90
2022-12-24T00:15:20.499Z,7.90
2022-12-24T00:17:47.182Z,8.00
2022-12-24T00:20:13.911Z,8.00
2022-12-24T00:22:40.692Z,8.20
2022-12-24T00:25:07.677Z,8.50
2022-12-24T00:27:34.396Z,8.60
2022-12-24T00:30:01.091Z,8.70
2022-12-24T00:32:27.739Z,8.90
2022-12-24T00:34:54.430Z,9.10
2022-12-24T00:37:21.138Z,9.20
2022-12-24T00:39:47.813Z,9.30
2022-12-24T00:42:14.547Z,9.40
2022-12-24T00:44:41.281Z,9.50
2022-12-24T00:47:12.006Z,9.50
2022-12-24T00:49:39.001Z,9.70
2022-12-24T00:52:05.735Z,9.90
2022-12-24T00:54:32.382Z,9.90
2022-12-24T00:56:59.108Z,9.90
2022-12-24T00:59:26.091Z,9.90
2022-12-24T01:01:52.887Z,9.90
2022-12-24T01:04:38.623Z,10.00
2022-12-24T01:07:05.375Z,10.00
2022-12-24T01:09:32.057Z,9.90
2022-12-24T01:11:58.806Z,9.90
2022-12-24T01:14:25.568Z,9.90
2022-12-24T01:16:52.232Z,9.90
2022-12-24T01:19:18.888Z,9.90
2022-12-24T01:21:45.620Z,9.90
2022-12-24T01:24:15.356Z,9.90
2022-12-24T01:26:42.952Z,9.90
2022-12-24T01:29:09.819Z,9.90
2022-12-24T01:31:36.584Z,9.90
2022-12-24T01:34:03.329Z,9.90
2022-12-24T01:36:30.142Z,9.90
2022-12-24T01:38:56.837Z,9.90
2022-12-24T01:41:42.853Z,9.90
2022-12-24T01:44:36.897Z,9.90
2022-12-24T01:47:13.634Z,10.00
2022-12-24T01:49:44.528Z,10.00
2022-12-24T01:52:16.975Z,10.00
2022-12-24T01:54:52.134Z,10.00
2022-12-24T01:57:30.221Z,10.10
2022-12-24T02:00:00.638Z,10.10
2022-12-24T02:02:28.566Z,10.00
2022-12-24T02:05:03.337Z,10.10
2022-12-24T02:07:30.415Z,10.10
2022-12-24T02:09:59.265Z,10.10
2022-12-24T02:12:28.703Z,10.10
2022-12-24T02:14:55.992Z,10.10
2022-12-24T02:17:40.391Z,10.10
2022-12-24T02:20:39.701Z,10.10
2022-12-24T02:23:09.250Z,10.00
2022-12-24T02:25:42.058Z,10.00
2022-12-24T02:28:33.274Z,9.90
2022-12-24T02:31:04.876Z,9.80
2022-12-24T02:33:35.286Z,9.70
2022-12-24T02:36:11.538Z,9.70
2022-12-24T02:38:59.431Z,9.70
2022-12-24T02:41:53.414Z,9.70
2022-12-24T02:44:23.948Z,9.70
2022-12-24T02:46:51.834Z,9.70
2022-12-24T02:49:18.908Z,9.70
2022-12-24T02:51:45.558Z,9.80
2022-12-24T02:54:14.363Z,9.80
2022-12-24T02:56:49.716Z,9.80
2022-12-24T02:59:34.710Z,9.90
2022-12-24T03:02:29.897Z,10.00
2022-12-24T03:05:03.039Z,10.00
2022-12-24T03:07:47.286Z,9.90
2022-12-24T03:10:33.749Z,9.90
2022-12-24T03:13:08.748Z,9.90
2022-12-24T03:15:36.910Z,9.90
2022-12-24T03:18:06.518Z,9.90
2022-12-24T03:20:41.967Z,9.80
2022-12-24T03:23:08.801Z,9.70
2022-12-24T03:25:40.925Z,9.70
2022-12-24T03:28:08.668Z,9.70
2022-12-24T03:30:35.543Z,9.70
2022-12-24T03:33:02.316Z,9.70
2022-12-24T03:35:28.995Z,9.70
2022-12-24T03:37:56.650Z,9.80
2022-12-24T03:40:23.517Z,9.80
2022-12-24T03:42:50.222Z,9.90
2022-12-24T03:45:18.050Z,9.90
2022-12-24T03:47:44.763Z,9.90
2022-12-24T03:50:11.523Z,9.90
2022-12-24T03:52:38.184Z,9.90
2022-12-24T03:55:05.438Z,9.80
2022-12-24T03:57:32.066Z,9.70
2022-12-24T03:59:58.747Z,9.60
2022-12-24T04:02:25.571Z,9.60
2022-12-24T04:04:52.353Z,9.50
2022-12-24T04:07:18.980Z,9.50
2022-12-24T04:09:45.633Z,9.50
2022-12-24T04:12:12.326Z,9.50
2022-12-24T04:14:38.992Z,9.50
2022-12-24T04:17:05.837Z,9.50
2022-12-24T04:19:32.621Z,9.60
2022-12-24T04:21:59.297Z,9.60
2022-12-24T04:24:26.020Z,9.70
2022-12-24T04:26:52.677Z,9.60
2022-12-24T04:29:19.406Z,9.60
2022-12-24T04:31:46.042Z,9.60
2022-12-24T04:34:12.748Z,9.60
2022-12-24T04:36:39.431Z,9.70
2022-12-24T04:39:06.326Z,9.70
2022-12-24T04:41:33.101Z,9.70
2022-12-24T04:43:59.927Z,9.70
2022-12-24T04:46:30.665Z,9.80
2022-12-24T04:48:58.327Z,9.70
2022-12-24T04:51:26.779Z,9.70
2022-12-24T04:53:53.904Z,9.70
2022-12-24T04:56:26.800Z,9.70
2022-12-24T04:58:53.841Z,9.70
2022-12-24T05:01:26.636Z,9.70
2022-12-24T05:03:54.227Z,9.70
2022-12-24T05:06:24.388Z,9.70
2022-12-24T05:08:53.364Z,9.70
2022-12-24T05:11:20.009Z,9.70
2022-12-24T05:13:48.222Z,9.70
2022-12-24T05:16:24.931Z,9.70
2022-12-24T05:18:52.894Z,9.70
2022-12-24T05:21:22.392Z,9.70
2022-12-24T05:24:07.933Z,9.70
2022-12-24T05:26:42.141Z,9.70
2022-12-24T05:29:11.973Z,9.70
2022-12-24T05:31:40.236Z,9.70
2022-12-24T05:34:08.335Z,9.70
2022-12-24T05:36:35.207Z,9.70
2022-12-24T05:39:02.257Z,9.70
2022-12-24T05:41:28.944Z,9.70
2022-12-24T05:43:55.920Z,9.70
2022-12-24T05:46:24.242Z,9.70
2022-12-24T05:48:52.175Z,9.70
2022-12-24T05:51:22.106Z,9.60
2022-12-24T05:53:50.605Z,9.80
2022-12-24T05:56:22.488Z,9.70
2022-12-24T05:58:50.319Z,9.70
2022-12-24T06:01:17.099Z,9.60
2022-12-24T06:03:44.002Z,9.60
2022-12-24T06:06:19.114Z,9.60
2022-12-24T06:08:46.131Z,9.60
2022-12-24T06:11:14.925Z,9.60
2022-12-24T06:13:43.006Z,9.60
2022-12-24T06:16:12.903Z,9.60
2022-12-24T06:18:39.880Z,9.60
2022-12-24T06:21:07.206Z,9.60
2022-12-24T06:23:36.331Z,9.60
2022-12-24T06:26:04.476Z,9.50
2022-12-24T06:28:33.406Z,9.50
2022-12-24T06:31:03.927Z,9.50
2022-12-24T06:33:32.069Z,9.50
2022-12-24T06:35:59.039Z,9.50
2022-12-24T06:38:26.150Z,9.50
2022-12-24T06:40:53.055Z,9.60
2022-12-24T06:43:19.814Z,9.60
2022-12-24T06:45:47.957Z,9.60
2022-12-24T06:48:15.658Z,9.60
2022-12-24T06:50:42.423Z,9.50
2022-12-24T06:53:10.264Z,9.50
2022-12-24T06:55:37.104Z,9.50
2022-12-24T06:58:04.571Z,9.50
2022-12-24T07:00:31.353Z,9.50
2022-12-24T07:02:58.342Z,9.40
2022-12-24T07:05:25.231Z,9.50
2022-12-24T07:07:51.923Z,9.40
2022-12-24T07:10:19.926Z,9.50
2022-12-24T07:12:46.736Z,9.40
2022-12-24T07:15:14.070Z,9.40
2022-12-24T07:17:40.975Z,9.40
2022-12-24T07:20:10.271Z,9.40
2022-12-24T07:22:36.933Z,9.40
2022-12-24T07:25:03.809Z,9.30
2022-12-24T07:27:30.938Z,9.40
2022-12-24T07:29:57.591Z,9.40
2022-12-24T07:32:24.242Z,9.30
2022-12-24T07:34:50.889Z,9.30
2022-12-24T07:37:17.586Z,9.30
2022-12-24T07:39:45.198Z,9.30
2022-12-24T07:42:11.901Z,9.40
2022-12-24T07:44:39.470Z,9.40
2022-12-24T07:47:06.265Z,9.30
2022-12-24T07:49:32.996Z,9.30
2022-12-24T07:52:00.051Z,9.30
2022-12-24T07:54:26.817Z,9.30
2022-12-24T07:56:53.513Z,9.30
2022-12-24T07:59:20.317Z,9.30
2022-12-24T08:01:47.326Z,9.30
2022-12-24T08:04:14.168Z,9.30
2022-12-24T08:06:41.017Z,9.30
2022-12-24T08:09:07.751Z,9.30
2022-12-24T08:11:34.457Z,9.30
2022-12-24T08:14:01.296Z,9.30
2022-12-24T08:16:27.955Z,9.30
2022-12-24T08:18:54.781Z,9.30
2022-12-24T08:21:21.502Z,9.40
2022-12-24T08:23:48.273Z,9.40
2022-12-24T08:26:14.999Z,9.40
2022-12-24T08:28:41.935Z,9.40
2022-12-24T08:31:08.859Z,9.40
2022-12-24T08:33:35.515Z,9.50
2022-12-24T08:36:03.041Z,9.50
2022-12-24T08:38:29.861Z,9.50
2022-12-24T08:40:56.518Z,9.50
2022-12-24T08:43:25.437Z,9.50
2022-12-24T08:45:52.683Z,9.50
2022-12-24T08:48:19.641Z,9.40
2022-12-24T08:50:46.395Z,9.40
2022-12-24T08:53:13.365Z,9.40
2022-12-24T08:55:40.129Z,9.40
2022-12-24T08:58:06.819Z,9.40
2022-12-24T09:00:33.493Z,9.50
2022-12-24T09:03:00.328Z,9.40
2022-12-24T09:05:27.521Z,9.40
2022-12-24T09:07:54.201Z,9.50
2022-12-24T09:10:21.219Z,9.50
2022-12-24T09:12:47.955Z,9.50
2022-12-24T09:15:15.076Z,9.50
2022-12-24T09:17:41.809Z,9.50
2022-12-24T09:20:09.195Z,9.50
2022-12-24T09:22:37.593Z,9.50
2022-12-24T09:25:06.192Z,9.50
2022-12-24T09:27:33.673Z,9.50
2022-12-24T09:30:00.548Z,9.60
2022-12-24T09:32:27.259Z,9.60
2022-12-24T09:34:54.327Z,9.60
2022-12-24T09:37:21.042Z,9.70
2022-12-24T09:39:47.821Z,9.70
2022-12-24T09:42:21.856Z,9.70
2022-12-24T09:45:00.836Z,9.70
2022-12-24T09:47:59.811Z,9.70
2022-12-24T09:50:31.291Z,9.70
2022-12-24T09:53:01.232Z,9.60
2022-12-24T09:55:35.955Z,9.60
2022-12-24T09:58:06.614Z,9.70
2022-12-24T10:00:37.478Z,9.70
2022-12-24T10:03:15.128Z,9.70
2022-12-24T10:05:49.428Z,9.70
2022-12-24T10:08:28.025Z,9.70
2022-12-24T10:11:00.348Z,9.60
2022-12-24T10:14:01.853Z,9.60
2022-12-24T10:16:51.457Z,9.60
2022-12-24T10:19:29.308Z,9.50
2022-12-24T10:22:47.182Z,9.50
2022-12-24T10:25:23.593Z,9.50
2022-12-24T10:27:51.867Z,9.50
2022-12-24T10:30:23.236Z,9.50
2022-12-24T10:32:52.677Z,9.40
2022-12-24T10:35:21.960Z,9.40
2022-12-24T10:37:51.006Z,9.30
2022-12-24T10:40:42.283Z,9.20
2022-12-24T10:43:15.974Z,9.10
2022-12-24T10:45:49.705Z,9.00
2022-12-24T10:48:25.760Z,8.90
2022-12-24T10:51:14.735Z,8.80
2022-12-24T10:53:51.743Z,8.80
2022-12-24T10:56:19.647Z,8.70
2022-12-24T10:58:52.716Z,8.80
2022-12-24T11:01:20.666Z,8.90
2022-12-24T11:04:01.084Z,9.10
2022-12-24T11:06:27.736Z,9.20
2022-12-24T11:08:54.422Z,9.30
2022-12-24T11:11:21.579Z,9.40
2022-12-24T11:13:51.225Z,9.50
2022-12-24T11:16:21.127Z,9.60
2022-12-24T11:18:52.314Z,9.60
2022-12-24T11:21:36.200Z,9.70
2022-12-24T11:24:12.370Z,9.80
2022-12-24T11:26:41.266Z,9.80
2022-12-24T11:29:25.835Z,9.90
2022-12-24T11:32:09.966Z,9.90
2022-12-24T11:34:36.674Z,9.90
2022-12-24T11:37:19.242Z,10.00
2022-12-24T11:40:00.614Z,10.00
2022-12-24T11:42:37.133Z,10.00
2022-12-24T11:45:14.542Z,10.10
2022-12-24T11:47:41.844Z,10.10
2022-12-24T11:50:22.356Z,10.10
2022-12-24T11:53:16.824Z,10.20
2022-12-24T11:55:51.311Z,10.30
2022-12-24T11:58:31.161Z,10.40
2022-12-24T12:01:18.476Z,10.70
2022-12-24T12:03:49.518Z,10.90
2022-12-24T12:06:31.245Z,11.20
2022-12-24T12:09:04.411Z,11.40
2022-12-24T12:11:33.850Z,11.40
2022-12-24T12:14:03.265Z,11.40
2022-12-24T12:17:00.718Z,11.30
2022-12-24T12:19:32.683Z,11.10
2022-12-24T12:22:04.030Z,11.00
2022-12-24T12:24:37.219Z,11.00
2022-12-24T12:27:19.781Z,11.10
2022-12-24T12:29:52.265Z,11.30
2022-12-24T12:32:27.637Z,11.40
2022-12-24T12:35:04.180Z,11.20
2022-12-24T12:37:43.149Z,11.10
2022-12-24T12:40:17.307Z,11.00
2022-12-24T12:43:05.821Z,10.90
2022-12-24T12:45:43.276Z,10.90
2022-12-24T12:48:27.574Z,11.10
2022-12-24T12:51:03.379Z,11.30
2022-12-24T12:53:53.810Z,11.40
2022-12-24T12:56:32.021Z,11.40
2022-12-24T12:59:15.884Z,11.20
2022-12-24T13:02:12.472Z,11.00
2022-12-24T13:04:57.701Z,11.00
2022-12-24T13:07:56.887Z,11.10
2022-12-24T13:10:44.539Z,11.10
2022-12-24T13:13:33.008Z,11.10
2022-12-24T13:16:18.732Z,11.10
2022-12-24T13:19:23.033Z,11.20
2022-12-24T13:21:51.458Z,11.20
2022-12-24T13:24:27.886Z,11.10
2022-12-24T13:27:05.104Z,11.00
2022-12-24T13:30:02.164Z,10.90
2022-12-24T13:32:33.750Z,10.70
2022-12-24T13:35:04.774Z,10.60
2022-12-24T13:37:31.626Z,10.60
2022-12-24T13:40:30.762Z,10.70
2022-12-24T13:43:06.491Z,10.60
2022-12-24T13:45:39.415Z,10.50
2022-12-24T13:48:06.163Z,10.40
2022-12-24T13:50:57.815Z,10.40
2022-12-24T13:53:43.634Z,10.30
2022-12-24T13:56:25.703Z,10.30
2022-12-24T13:59:09.041Z,10.30
2022-12-24T14:01:39.811Z,10.30
2022-12-24T14:04:10.182Z,10.30
2022-12-24T14:06:40.748Z,10.50
2022-12-24T14:09:18.055Z,10.50
2022-12-24T14:12:04.662Z,10.40
2022-12-24T14:14:32.939Z,10.40
2022-12-24T14:17:25.552Z,10.40
2022-12-24T14:19:54.922Z,10.30
2022-12-24T14:22:38.500Z,10.30
2022-12-24T14:25:24.995Z,10.40
2022-12-24T14:27:58.914Z,10.40
2022-12-24T14:30:28.174Z,10.50
2022-12-24T14:32:55.119Z,10.50
2022-12-24T14:35:24.248Z,10.40
2022-12-24T14:38:05.319Z,10.40
2022-12-24T14:40:37.208Z,10.30
2022-12-24T14:43:34.741Z,10.30
2022-12-24T14:46:10.433Z,10.30
2022-12-24T14:48:53.318Z,10.30
2022-12-24T14:51:42.089Z,10.30
2022-12-24T14:54:23.506Z,10.20
2022-12-24T14:57:10.214Z,10.20
2022-12-24T14:59:52.384Z,10.20
2022-12-24T15:02:39.424Z,10.20
2022-12-24T15:05:25.628Z,10.10
2022-12-24T15:08:02.634Z,10.10
2022-12-24T15:10:38.237Z,10.10
2022-12-24T15:13:06.944Z,10.10
2022-12-24T15:15:34.518Z,10.00
2022-12-24T15:18:03.397Z,10.00
2022-12-24T15:20:31.410Z,10.00
2022-12-24T15:22:59.322Z,10.00
2022-12-24T15:25:28.018Z,10.00
2022-12-24T15:27:54.909Z,10.00
2022-12-24T15:30:25.185Z,9.90
2022-12-24T15:32:54.453Z,9.90
2022-12-24T15:35:43.102Z,9.90
2022-12-24T15:38:25.546Z,9.80
2022-12-24T15:40:53.101Z,9.80
2022-12-24T15:43:20.218Z,9.80
2022-12-24T15:45:48.562Z,9.70
2022-12-24T15:48:26.768Z,9.70
2022-12-24T15:51:02.678Z,9.60
2022-12-24T15:53:33.085Z,9.50
2022-12-24T15:56:09.342Z,9.50
2022-12-24T15:58:45.645Z,9.50
2022-12-24T16:01:18.014Z,9.40
2022-12-24T16:03:50.688Z,9.40
2022-12-24T16:06:17.673Z,9.40
2022-12-24T16:08:45.512Z,9.30
2022-12-24T16:11:23.937Z,9.30
2022-12-24T16:13:50.730Z,9.30
2022-12-24T16:16:29.985Z,9.30
2022-12-24T16:19:01.153Z,9.30
2022-12-24T16:21:35.171Z,9.30
2022-12-24T16:24:21.322Z,9.30
2022-12-24T16:26:48.372Z,9.30
2022-12-24T16:29:16.085Z,9.30
2022-12-24T16:31:51.601Z,9.20
2022-12-24T16:34:20.652Z,9.20
2022-12-24T16:36:47.424Z,9.10
2022-12-24T16:39:25.718Z,9.10
2022-12-24T16:42:19.651Z,9.10
2022-12-24T16:44:52.963Z,9.00
2022-12-24T16:47:33.402Z,9.00
2022-12-24T16:50:03.020Z,9.00
2022-12-24T16:52:33.532Z,8.90
2022-12-24T16:55:01.401Z,8.90
2022-12-24T16:57:28.672Z,8.90
2022-12-24T16:59:55.714Z,8.90
2022-12-24T17:02:24.031Z,8.80
2022-12-24T17:04:51.406Z,8.80
2022-12-24T17:07:20.066Z,8.70
2022-12-24T17:09:46.721Z,8.70
2022-12-24T17:12:14.229Z,8.60
2022-12-24T17:14:42.421Z,8.50
2022-12-24T17:17:24.669Z,8.50
2022-12-24T17:19:51.383Z,8.50
2022-12-24T17:22:18.009Z,8.40
2022-12-24T17:24:44.683Z,8.40
2022-12-24T17:27:11.904Z,8.30
2022-12-24T17:29:38.709Z,8.20
2022-12-24T17:32:05.576Z,8.20
2022-12-24T17:34:32.571Z,8.30
2022-12-24T17:36:59.183Z,8.30
2022-12-24T17:39:28.061Z,8.30
2022-12-24T17:41:55.001Z,8.30
2022-12-24T17:44:21.635Z,8.30
2022-12-24T17:46:48.338Z,8.40
2022-12-24T17:49:15.170Z,8.40
2022-12-24T17:51:45.529Z,8.40
2022-12-24T17:54:13.203Z,8.30
2022-12-24T17:56:39.972Z,8.30
2022-12-24T17:59:06.674Z,8.30
2022-12-24T18:01:33.713Z,8.20
2022-12-24T18:04:03.011Z,8.20
2022-12-24T18:06:30.216Z,8.10
2022-12-24T18:08:57.333Z,8.00
2022-12-24T18:11:30.418Z,7.90
2022-12-24T18:13:57.741Z,7.70
2022-12-24T18:16:30.465Z,7.50
2022-12-24T18:18:58.100Z,7.40
2022-12-24T18:21:27.609Z,7.30
2022-12-24T18:23:57.699Z,7.20
2022-12-24T18:26:26.630Z,7.20
2022-12-24T18:28:55.429Z,7.20
2022-12-24T18:31:23.823Z,7.20
2022-12-24T18:33:51.748Z,7.20
2022-12-24T18:36:19.205Z,7.30
2022-12-24T18:38:47.498Z,7.40
2022-12-24T18:41:17.628Z,7.40
2022-12-24T18:43:44.342Z,7.30
2022-12-24T18:46:13.898Z,7.30
2022-12-24T18:48:40.835Z,7.20
2022-12-24T18:51:09.215Z,7.20
2022-12-24T18:53:38.422Z,7.00
2022-12-24T18:56:20.816Z,7.00
2022-12-24T18:58:55.426Z,7.10
2022-12-24T19:01:31.171Z,7.10
2022-12-24T19:04:03.787Z,7.10
2022-12-24T19:06:39.024Z,7.00
2022-12-24T19:09:06.156Z,6.90
2022-12-24T19:11:45.433Z,6.90
2022-12-24T19:14:16.012Z,6.90
2022-12-24T19:17:11.114Z,7.00
2022-12-24T19:19:38.109Z,7.00
2022-12-24T19:22:05.043Z,7.00
2022-12-24T19:24:31.747Z,6.90
2022-12-24T19:26:58.385Z,6.90
2022-12-24T19:29:25.023Z,6.80
2022-12-24T19:31:51.760Z,6.90
2022-12-24T19:34:18.424Z,6.90
2022-12-24T19:36:46.676Z,6.90
2022-12-24T19:39:13.377Z,6.90
2022-12-24T19:41:40.037Z,6.80
2022-12-24T19:44:06.689Z,6.90
2022-12-24T19:46:34.794Z,6.90
2022-12-24T19:49:05.245Z,7.00
2022-12-24T19:51:33.175Z,7.00
2022-12-24T19:54:00.604Z,7.00
2022-12-24T19:56:29.517Z,7.10
2022-12-24T19:59:00.031Z,7.10
2022-12-24T20:01:30.014Z,7.10
2022-12-24T20:03:56.915Z,7.10
2022-12-24T20:06:26.340Z,7.10
2022-12-24T20:08:57.273Z,7.00
2022-12-24T20:11:23.985Z,6.80
2022-12-24T20:14:12.188Z,6.70
2022-12-24T20:16:38.996Z,6.60
2022-12-24T20:19:07.580Z,6.70
2022-12-24T20:21:39.326Z,6.50
2022-12-24T20:24:06.791Z,6.50
2022-12-24T20:26:33.685Z,6.30
2022-12-24T20:29:08.866Z,6.10
2022-12-24T20:31:37.222Z,5.90
2022-12-24T20:34:05.325Z,5.70
2022-12-24T20:36:32.143Z,5.60
2022-12-24T20:38:59.696Z,5.50
2022-12-24T20:41:28.422Z,5.40
2022-12-24T20:43:57.740Z,5.40
2022-12-24T20:46:24.776Z,5.30
2022-12-24T20:48:52.229Z,5.10
2022-12-24T20:51:25.160Z,5.00
2022-12-24T20:53:54.234Z,4.90
2022-12-24T20:56:21.823Z,4.90
2022-12-24T20:58:49.183Z,5.00
2022-12-24T21:01:18.953Z,4.90
2022-12-24T21:03:46.157Z,4.80
2022-12-24T21:06:13.834Z,4.80
2022-12-24T21:08:43.804Z,4.80
2022-12-24T21:11:29.089Z,4.70
2022-12-24T21:13:56.771Z,4.70
2022-12-24T21:16:23.516Z,4.70
2022-12-24T21:19:06.334Z,4.60
2022-12-24T21:24:32.155Z,4.70
2022-12-24T21:26:58.914Z,4.60
2022-12-24T21:29:27.665Z,4.50
2022-12-24T21:31:54.518Z,4.40
2022-12-24T21:34:21.230Z,4.50
2022-12-24T21:36:48.206Z,4.40
2022-12-24T21:39:14.877Z,4.40
2022-12-24T21:41:41.628Z,4.30
2022-12-24T21:44:08.308Z,4.30
2022-12-24T21:46:35.047Z,4.20
2022-12-24T21:49:20.442Z,4.10
2022-12-24T21:51:48.888Z,4.10
2022-12-24T21:54:30.543Z,4.00
2022-12-24T21:57:18.751Z,4.10
2022-12-24T21:59:45.821Z,4.00
2022-12-24T22:02:15.151Z,4.20
2022-12-24T22:04:42.907Z,4.00
2022-12-24T22:07:42.907Z,4.00
2022-12-24T22:10:30.725Z,4.00
2022-12-24T22:12:59.789Z,4.00
2022-12-24T22:15:27.378Z,4.00
2022-12-24T22:17:54.084Z,3.90
2022-12-24T22:20:20.835Z,3.90
2022-12-24T22:22:48.856Z,4.00
2022-12-24T22:25:16.598Z,3.90
2022-12-24T22:27:43.979Z,3.90
2022-12-24T22:30:20.945Z,3.80
2022-12-24T22:33:00.127Z,3.90
2022-12-24T22:35:40.910Z,3.80
2022-12-24T22:38:09.306Z,3.60
2022-12-24T22:40:38.525Z,3.70
2022-12-24T22:43:05.259Z,3.80
2022-12-24T22:45:31.930Z,3.70
2022-12-24T22:47:58.552Z,3.70
2022-12-24T22:50:25.259Z,3.60
2022-12-24T22:52:53.226Z,3.60
2022-12-24T22:55:20.833Z,3.60
2022-12-24T22:57:47.669Z,3.50
2022-12-24T23:00:44.958Z,3.60
2022-12-24T23:03:12.189Z,3.70
2022-12-24T23:05:39.578Z,3.70
2022-12-24T23:08:07.159Z,3.50
2022-12-24T23:10:34.707Z,3.60
2022-12-24T23:13:19.955Z,3.50
2022-12-24T23:15:46.739Z,3.50
2022-12-24T23:18:13.475Z,3.50
2022-12-24T23:20:43.089Z,3.50
2022-12-24T23:23:09.772Z,3.60
2022-12-24T23:25:36.550Z,3.70
2022-12-24T23:28:03.565Z,3.80
2022-12-24T23:30:30.699Z,3.60
2022-12-24T23:32:57.589Z,3.50
2022-12-24T23:35:26.987Z,3.40
2022-12-24T23:37:53.961Z,3.40
2022-12-24T23:40:20.741Z,3.30
2022-12-24T23:42:47.538Z,3.40
2022-12-24T23:45:14.346Z,3.40
2022-12-24T23:47:41.055Z,3.40
2022-12-24T23:50:08.419Z,3.40
2022-12-24T23:52:35.105Z,3.30
2022-12-24T23:55:01.785Z,3.40
2022-12-24T23:57:28.516Z,3.60
2022-12-24T23:59:55.173Z,3.50
